sensor_id;sensor_type;location;lat;lon;timestamp;pressure;altitude;pressure_sealevel;temperature;humidity
73952;BME280;62304;47.662;18.324;2024-02-15T00:01:31;100990.75;;;6.28;83.71
73952;BME280;62304;47.662;18.324;2024-02-15T00:04:36;100995.12;;;6.12;84.56
73952;BME280;62304;47.662;18.324;2024-02-15T00:07:39;101006.81;;;6.26;84.04
73952;BME280;62304;47.662;18.324;2024-02-15T00:10:43;100997.88;;;6.38;82.99
73952;BME280;62304;47.662;18.324;2024-02-15T00:13:49;100992.53;;;6.33;84.08
73952;BME280;62304;47.662;18.324;2024-02-15T00:16:52;100994.94;;;6.51;83.23
73952;BME280;62304;47.662;18.324;2024-02-15T00:19:55;100996.69;;;6.64;82.67
73952;BME280;62304;47.662;18.324;2024-02-15T00:22:59;100996.69;;;6.73;81.61
73952;BME280;62304;47.662;18.324;2024-02-15T00:26:02;101004.47;;;6.54;83.17
73952;BME280;62304;47.662;18.324;2024-02-15T00:29:06;101000.94;;;6.53;83.10
73952;BME280;62304;47.662;18.324;2024-02-15T00:32:09;101007.22;;;6.62;82.52
73952;BME280;62304;47.662;18.324;2024-02-15T00:35:16;101010.28;;;6.78;81.78
73952;BME280;62304;47.662;18.324;2024-02-15T00:38:19;101009.94;;;6.79;82.52
73952;BME280;62304;47.662;18.324;2024-02-15T00:41:23;100995.34;;;6.79;82.09
73952;BME280;62304;47.662;18.324;2024-02-15T00:44:27;101015.63;;;6.66;83.49
73952;BME280;62304;47.662;18.324;2024-02-15T00:47:31;101004.09;;;6.81;82.74
73952;BME280;62304;47.662;18.324;2024-02-15T00:50:34;101011.06;;;6.78;82.71
73952;BME280;62304;47.662;18.324;2024-02-15T00:53:38;101013.19;;;6.81;82.67
73952;BME280;62304;47.662;18.324;2024-02-15T00:56:41;101015.41;;;6.88;83.34
73952;BME280;62304;47.662;18.324;2024-02-15T00:59:45;101015.78;;;6.78;82.54
73952;BME280;62304;47.662;18.324;2024-02-15T01:02:48;101011.41;;;6.85;82.83
73952;BME280;62304;47.662;18.324;2024-02-15T01:05:52;101013.13;;;6.98;82.07
73952;BME280;62304;47.662;18.324;2024-02-15T01:08:56;101008.12;;;6.92;82.79
73952;BME280;62304;47.662;18.324;2024-02-15T01:12:02;101010.28;;;6.78;83.64
73952;BME280;62304;47.662;18.324;2024-02-15T01:15:06;101004.72;;;6.95;83.56
73952;BME280;62304;47.662;18.324;2024-02-15T01:18:10;100993.41;;;7.17;81.89
73952;BME280;62304;47.662;18.324;2024-02-15T01:21:14;101008.88;;;7.09;82.23
73952;BME280;62304;47.662;18.324;2024-02-15T01:24:17;101002.13;;;6.90;83.10
73952;BME280;62304;47.662;18.324;2024-02-15T01:27:20;100995.56;;;7.03;82.69
73952;BME280;62304;47.662;18.324;2024-02-15T01:30:25;100997.50;;;7.11;82.29
73952;BME280;62304;47.662;18.324;2024-02-15T01:33:28;101001.25;;;7.06;82.47
73952;BME280;62304;47.662;18.324;2024-02-15T01:36:32;100998.22;;;7.28;81.43
73952;BME280;62304;47.662;18.324;2024-02-15T01:39:35;100987.50;;;6.98;82.60
73952;BME280;62304;47.662;18.324;2024-02-15T01:42:39;100992.56;;;6.87;83.18
73952;BME280;62304;47.662;18.324;2024-02-15T01:45:42;100982.66;;;6.95;82.74
73952;BME280;62304;47.662;18.324;2024-02-15T01:48:48;100985.44;;;6.86;82.94
73952;BME280;62304;47.662;18.324;2024-02-15T01:51:54;100988.81;;;6.92;83.05
73952;BME280;62304;47.662;18.324;2024-02-15T01:55:02;100989.16;;;6.82;83.21
73952;BME280;62304;47.662;18.324;2024-02-15T01:58:11;100977.88;;;6.66;83.98
73952;BME280;62304;47.662;18.324;2024-02-15T02:01:15;100976.44;;;6.60;83.63
73952;BME280;62304;47.662;18.324;2024-02-15T02:04:20;100970.62;;;6.53;83.86
73952;BME280;62304;47.662;18.324;2024-02-15T02:07:23;100972.59;;;6.44;84.48
73952;BME280;62304;47.662;18.324;2024-02-15T02:10:26;100971.44;;;6.45;84.00
73952;BME280;62304;47.662;18.324;2024-02-15T02:13:35;100967.94;;;6.19;85.19
73952;BME280;62304;47.662;18.324;2024-02-15T02:16:39;100971.12;;;6.47;84.18
73952;BME280;62304;47.662;18.324;2024-02-15T02:19:42;100961.84;;;6.60;83.03
73952;BME280;62304;47.662;18.324;2024-02-15T02:22:50;100969.66;;;6.49;83.46
73952;BME280;62304;47.662;18.324;2024-02-15T02:25:55;100968.53;;;6.42;84.05
73952;BME280;62304;47.662;18.324;2024-02-15T02:28:58;100964.19;;;6.32;84.35
73952;BME280;62304;47.662;18.324;2024-02-15T02:32:02;100963.22;;;6.28;84.37
73952;BME280;62304;47.662;18.324;2024-02-15T02:35:06;100970.97;;;6.43;84.43
73952;BME280;62304;47.662;18.324;2024-02-15T02:38:10;100977.47;;;6.39;84.69
73952;BME280;62304;47.662;18.324;2024-02-15T02:41:13;100972.94;;;6.26;85.91
73952;BME280;62304;47.662;18.324;2024-02-15T02:44:16;100967.94;;;5.85;87.53
73952;BME280;62304;47.662;18.324;2024-02-15T02:47:20;100965.53;;;5.84;87.59
73952;BME280;62304;47.662;18.324;2024-02-15T02:50:26;100965.97;;;6.20;85.97
73952;BME280;62304;47.662;18.324;2024-02-15T02:53:29;100973.75;;;6.26;84.66
73952;BME280;62304;47.662;18.324;2024-02-15T02:56:32;100972.16;;;6.17;85.22
73952;BME280;62304;47.662;18.324;2024-02-15T02:59:36;100973.59;;;6.31;85.65
73952;BME280;62304;47.662;18.324;2024-02-15T03:02:43;100974.50;;;6.61;84.72
73952;BME280;62304;47.662;18.324;2024-02-15T03:05:47;100976.91;;;6.62;84.67
73952;BME280;62304;47.662;18.324;2024-02-15T03:08:51;100971.56;;;6.57;84.34
73952;BME280;62304;47.662;18.324;2024-02-15T03:11:57;100986.81;;;6.63;85.47
73952;BME280;62304;47.662;18.324;2024-02-15T03:15:01;100986.44;;;6.73;83.85
73952;BME280;62304;47.662;18.324;2024-02-15T03:18:05;100977.56;;;6.68;84.89
73952;BME280;62304;47.662;18.324;2024-02-15T03:21:09;100985.13;;;6.79;84.09
73952;BME280;62304;47.662;18.324;2024-02-15T03:24:16;100985.63;;;6.81;84.68
73952;BME280;62304;47.662;18.324;2024-02-15T03:27:19;100994.53;;;6.78;84.83
73952;BME280;62304;47.662;18.324;2024-02-15T03:30:26;100981.22;;;6.89;84.32
73952;BME280;62304;47.662;18.324;2024-02-15T03:33:33;100971.38;;;6.71;84.22
73952;BME280;62304;47.662;18.324;2024-02-15T03:36:38;100982.56;;;6.74;84.54
73952;BME280;62304;47.662;18.324;2024-02-15T03:39:41;100974.22;;;6.91;84.03
73952;BME280;62304;47.662;18.324;2024-02-15T03:42:46;100982.13;;;7.01;83.87
73952;BME280;62304;47.662;18.324;2024-02-15T03:45:55;100985.22;;;7.00;83.47
73952;BME280;62304;47.662;18.324;2024-02-15T03:48:58;100983.38;;;7.12;83.46
73952;BME280;62304;47.662;18.324;2024-02-15T03:52:01;100991.47;;;7.17;83.57
73952;BME280;62304;47.662;18.324;2024-02-15T03:55:05;100995.47;;;7.28;83.05
73952;BME280;62304;47.662;18.324;2024-02-15T03:58:10;100995.12;;;7.30;82.94
73952;BME280;62304;47.662;18.324;2024-02-15T04:01:15;100991.09;;;7.27;82.35
73952;BME280;62304;47.662;18.324;2024-02-15T04:04:19;100994.84;;;7.23;82.14
73952;BME280;62304;47.662;18.324;2024-02-15T04:07:25;100989.56;;;7.09;82.19
73952;BME280;62304;47.662;18.324;2024-02-15T04:10:29;100994.22;;;7.17;82.73
73952;BME280;62304;47.662;18.324;2024-02-15T04:13:33;101003.63;;;7.16;82.94
73952;BME280;62304;47.662;18.324;2024-02-15T04:16:37;100992.22;;;7.26;82.81
73952;BME280;62304;47.662;18.324;2024-02-15T04:19:40;100996.69;;;7.39;81.72
73952;BME280;62304;47.662;18.324;2024-02-15T04:22:44;100994.62;;;7.36;81.79
73952;BME280;62304;47.662;18.324;2024-02-15T04:25:47;100990.13;;;7.23;82.03
73952;BME280;62304;47.662;18.324;2024-02-15T04:28:54;101003.59;;;7.25;81.71
73952;BME280;62304;47.662;18.324;2024-02-15T04:31:57;100998.72;;;7.30;81.20
73952;BME280;62304;47.662;18.324;2024-02-15T04:35:01;101003.78;;;7.20;81.54
73952;BME280;62304;47.662;18.324;2024-02-15T04:38:04;100997.09;;;7.29;81.36
73952;BME280;62304;47.662;18.324;2024-02-15T04:41:11;101001.06;;;7.49;81.70
73952;BME280;62304;47.662;18.324;2024-02-15T04:44:14;101015.91;;;7.56;80.90
73952;BME280;62304;47.662;18.324;2024-02-15T04:47:19;101002.94;;;7.57;80.70
73952;BME280;62304;47.662;18.324;2024-02-15T04:50:23;101004.31;;;7.42;80.96
73952;BME280;62304;47.662;18.324;2024-02-15T04:53:29;101004.88;;;7.27;81.69
73952;BME280;62304;47.662;18.324;2024-02-15T04:56:34;100996.50;;;7.15;82.00
73952;BME280;62304;47.662;18.324;2024-02-15T04:59:39;100991.78;;;7.24;82.25
73952;BME280;62304;47.662;18.324;2024-02-15T05:02:42;100994.44;;;7.04;82.57
73952;BME280;62304;47.662;18.324;2024-02-15T05:05:46;100992.87;;;7.23;82.12
73952;BME280;62304;47.662;18.324;2024-02-15T05:08:50;100992.03;;;7.31;82.76
73952;BME280;62304;47.662;18.324;2024-02-15T05:11:53;100997.47;;;7.48;82.07
73952;BME280;62304;47.662;18.324;2024-02-15T05:14:57;100993.56;;;7.49;81.99
73952;BME280;62304;47.662;18.324;2024-02-15T05:18:01;100999.06;;;7.49;82.11
73952;BME280;62304;47.662;18.324;2024-02-15T05:21:04;100993.19;;;7.59;80.95
73952;BME280;62304;47.662;18.324;2024-02-15T05:24:16;100999.59;;;7.43;81.31
73952;BME280;62304;47.662;18.324;2024-02-15T05:27:20;101006.97;;;7.59;81.20
73952;BME280;62304;47.662;18.324;2024-02-15T05:30:25;100990.38;;;7.39;81.54
73952;BME280;62304;47.662;18.324;2024-02-15T05:33:28;100999.41;;;7.19;82.49
73952;BME280;62304;47.662;18.324;2024-02-15T05:36:33;100995.88;;;7.10;83.30
73952;BME280;62304;47.662;18.324;2024-02-15T05:39:36;101002.56;;;7.00;83.73
73952;BME280;62304;47.662;18.324;2024-02-15T05:42:43;100999.53;;;7.22;82.93
73952;BME280;62304;47.662;18.324;2024-02-15T05:45:49;101003.72;;;7.28;82.77
73952;BME280;62304;47.662;18.324;2024-02-15T05:48:54;101003.59;;;7.25;82.37
73952;BME280;62304;47.662;18.324;2024-02-15T05:51:58;100999.72;;;7.17;82.77
73952;BME280;62304;47.662;18.324;2024-02-15T05:55:03;100996.97;;;7.17;82.41
73952;BME280;62304;47.662;18.324;2024-02-15T05:58:06;101002.84;;;7.45;81.93
73952;BME280;62304;47.662;18.324;2024-02-15T06:01:12;101007.50;;;7.53;81.55
73952;BME280;62304;47.662;18.324;2024-02-15T06:04:17;101002.97;;;7.48;81.84
73952;BME280;62304;47.662;18.324;2024-02-15T06:07:21;101008.75;;;7.35;81.54
73952;BME280;62304;47.662;18.324;2024-02-15T06:10:25;101014.41;;;7.38;81.58
73952;BME280;62304;47.662;18.324;2024-02-15T06:13:28;101023.72;;;7.25;82.73
73952;BME280;62304;47.662;18.324;2024-02-15T06:16:32;101036.56;;;7.21;83.31
73952;BME280;62304;47.662;18.324;2024-02-15T06:19:35;101031.81;;;7.30;83.29
73952;BME280;62304;47.662;18.324;2024-02-15T06:22:39;101029.56;;;7.24;83.10
73952;BME280;62304;47.662;18.324;2024-02-15T06:25:44;101035.59;;;7.17;84.33
73952;BME280;62304;47.662;18.324;2024-02-15T06:28:47;101045.47;;;7.27;84.62
73952;BME280;62304;47.662;18.324;2024-02-15T06:32:09;101031.62;;;7.35;83.79
73952;BME280;62304;47.662;18.324;2024-02-15T06:35:31;101035.16;;;7.44;83.92
73952;BME280;62304;47.662;18.324;2024-02-15T06:38:53;101044.84;;;7.50;83.29
73952;BME280;62304;47.662;18.324;2024-02-15T06:42:16;101041.91;;;7.55;83.02
73952;BME280;62304;47.662;18.324;2024-02-15T06:45:21;101051.28;;;7.63;83.83
73952;BME280;62304;47.662;18.324;2024-02-15T06:48:24;101053.03;;;7.67;84.41
73952;BME280;62304;47.662;18.324;2024-02-15T06:51:29;101065.81;;;7.80;82.66
73952;BME280;62304;47.662;18.324;2024-02-15T06:54:33;101075.97;;;7.88;82.59
73952;BME280;62304;47.662;18.324;2024-02-15T06:57:38;101075.91;;;7.97;82.30
73952;BME280;62304;47.662;18.324;2024-02-15T07:00:45;101074.19;;;7.92;81.62
73952;BME280;62304;47.662;18.324;2024-02-15T07:03:48;101058.19;;;7.77;81.32
73952;BME280;62304;47.662;18.324;2024-02-15T07:06:52;101064.69;;;8.02;81.53
73952;BME280;62304;47.662;18.324;2024-02-15T07:09:57;101068.03;;;7.87;81.24
73952;BME280;62304;47.662;18.324;2024-02-15T07:13:01;101067.78;;;8.00;80.99
73952;BME280;62304;47.662;18.324;2024-02-15T07:16:08;101072.56;;;8.12;79.84
73952;BME280;62304;47.662;18.324;2024-02-15T07:19:13;101075.31;;;8.20;79.40
73952;BME280;62304;47.662;18.324;2024-02-15T07:22:17;101077.87;;;8.25;79.41
73952;BME280;62304;47.662;18.324;2024-02-15T07:25:20;101075.50;;;8.36;78.63
73952;BME280;62304;47.662;18.324;2024-02-15T07:28:23;101077.47;;;8.35;78.19
73952;BME280;62304;47.662;18.324;2024-02-15T07:31:30;101073.28;;;8.50;78.52
73952;BME280;62304;47.662;18.324;2024-02-15T07:34:33;101076.22;;;8.65;77.54
73952;BME280;62304;47.662;18.324;2024-02-15T07:37:39;101074.03;;;8.59;76.57
73952;BME280;62304;47.662;18.324;2024-02-15T07:40:53;101066.00;;;8.78;76.28
73952;BME280;62304;47.662;18.324;2024-02-15T07:43:56;101058.81;;;9.09;76.13
73952;BME280;62304;47.662;18.324;2024-02-15T07:47:01;101053.91;;;9.15;73.36
73952;BME280;62304;47.662;18.324;2024-02-15T07:50:05;101051.97;;;9.39;73.20
73952;BME280;62304;47.662;18.324;2024-02-15T07:53:09;101048.97;;;9.56;71.89
73952;BME280;62304;47.662;18.324;2024-02-15T07:56:16;101059.12;;;9.88;72.05
73952;BME280;62304;47.662;18.324;2024-02-15T07:59:19;101048.41;;;10.26;69.71
73952;BME280;62304;47.662;18.324;2024-02-15T08:02:23;101052.59;;;10.60;67.99
73952;BME280;62304;47.662;18.324;2024-02-15T08:05:28;101050.25;;;10.89;67.43
73952;BME280;62304;47.662;18.324;2024-02-15T08:08:31;101052.12;;;11.01;63.02
73952;BME280;62304;47.662;18.324;2024-02-15T08:11:34;101042.16;;;11.27;63.13
73952;BME280;62304;47.662;18.324;2024-02-15T08:14:37;101023.16;;;11.29;62.59
73952;BME280;62304;47.662;18.324;2024-02-15T08:17:44;101041.50;;;11.34;60.78
73952;BME280;62304;47.662;18.324;2024-02-15T08:20:51;101039.50;;;11.62;62.65
73952;BME280;62304;47.662;18.324;2024-02-15T08:23:57;101039.91;;;11.64;60.62
73952;BME280;62304;47.662;18.324;2024-02-15T08:27:01;101035.62;;;11.66;59.94
73952;BME280;62304;47.662;18.324;2024-02-15T08:30:12;101042.31;;;11.81;59.15
73952;BME280;62304;47.662;18.324;2024-02-15T08:33:16;101053.53;;;12.19;58.30
73952;BME280;62304;47.662;18.324;2024-02-15T08:36:22;101052.56;;;12.11;58.30
73952;BME280;62304;47.662;18.324;2024-02-15T08:39:26;101044.53;;;12.44;58.14
73952;BME280;62304;47.662;18.324;2024-02-15T08:42:30;101043.94;;;12.54;57.34
73952;BME280;62304;47.662;18.324;2024-02-15T08:45:33;101051.56;;;12.57;57.67
73952;BME280;62304;47.662;18.324;2024-02-15T08:48:38;101049.44;;;12.51;57.34
73952;BME280;62304;47.662;18.324;2024-02-15T08:51:41;101053.16;;;12.39;57.18
73952;BME280;62304;47.662;18.324;2024-02-15T08:54:45;101057.47;;;12.37;56.86
73952;BME280;62304;47.662;18.324;2024-02-15T08:57:48;101052.16;;;12.47;56.20
73952;BME280;62304;47.662;18.324;2024-02-15T09:00:51;101056.91;;;12.66;55.72
73952;BME280;62304;47.662;18.324;2024-02-15T09:03:57;101050.28;;;12.93;54.86
73952;BME280;62304;47.662;18.324;2024-02-15T09:07:01;101048.47;;;13.00;53.43
73952;BME280;62304;47.662;18.324;2024-02-15T09:10:08;101052.00;;;13.20;53.71
73952;BME280;62304;47.662;18.324;2024-02-15T09:13:13;101043.06;;;13.30;53.06
73952;BME280;62304;47.662;18.324;2024-02-15T09:16:17;101054.81;;;13.20;53.67
73952;BME280;62304;47.662;18.324;2024-02-15T09:19:20;101044.72;;;13.12;53.86
73952;BME280;62304;47.662;18.324;2024-02-15T09:22:24;101044.16;;;13.25;53.85
73952;BME280;62304;47.662;18.324;2024-02-15T09:25:27;101041.63;;;13.39;54.02
73952;BME280;62304;47.662;18.324;2024-02-15T09:28:30;101042.06;;;13.41;53.72
73952;BME280;62304;47.662;18.324;2024-02-15T09:31:34;101035.88;;;13.29;51.64
73952;BME280;62304;47.662;18.324;2024-02-15T09:34:39;101040.06;;;13.64;53.31
73952;BME280;62304;47.662;18.324;2024-02-15T09:37:48;101045.09;;;14.07;52.51
73952;BME280;62304;47.662;18.324;2024-02-15T09:40:52;101038.56;;;13.96;52.24
73952;BME280;62304;47.662;18.324;2024-02-15T09:43:58;101039.16;;;13.83;52.11
73952;BME280;62304;47.662;18.324;2024-02-15T09:47:03;101036.19;;;13.98;51.97
73952;BME280;62304;47.662;18.324;2024-02-15T09:50:16;101036.06;;;13.88;52.90
73952;BME280;62304;47.662;18.324;2024-02-15T09:53:21;101033.44;;;14.24;52.92
73952;BME280;62304;47.662;18.324;2024-02-15T09:56:31;101036.09;;;13.91;52.48
73952;BME280;62304;47.662;18.324;2024-02-15T09:59:35;101036.59;;;14.23;52.75
73952;BME280;62304;47.662;18.324;2024-02-15T10:02:58;101036.84;;;14.40;52.70
73952;BME280;62304;47.662;18.324;2024-02-15T10:06:04;101040.78;;;14.72;52.00
73952;BME280;62304;47.662;18.324;2024-02-15T10:09:24;101040.56;;;14.84;50.99
73952;BME280;62304;47.662;18.324;2024-02-15T10:12:39;101032.78;;;15.04;50.61
73952;BME280;62304;47.662;18.324;2024-02-15T10:15:42;101038.97;;;15.23;50.66
73952;BME280;62304;47.662;18.324;2024-02-15T10:18:46;101036.94;;;15.20;51.24
73952;BME280;62304;47.662;18.324;2024-02-15T10:21:52;101030.16;;;15.21;51.67
73952;BME280;62304;47.662;18.324;2024-02-15T10:25:13;101025.47;;;15.32;51.02
73952;BME280;62304;47.662;18.324;2024-02-15T10:28:21;101036.34;;;15.01;51.75
73952;BME280;62304;47.662;18.324;2024-02-15T10:31:27;101031.97;;;15.03;52.51
73952;BME280;62304;47.662;18.324;2024-02-15T10:34:31;101028.41;;;15.03;52.62
73952;BME280;62304;47.662;18.324;2024-02-15T10:37:34;101025.19;;;15.04;52.20
73952;BME280;62304;47.662;18.324;2024-02-15T10:40:39;101018.72;;;14.97;51.70
73952;BME280;62304;47.662;18.324;2024-02-15T10:43:46;101011.00;;;15.20;51.48
73952;BME280;62304;47.662;18.324;2024-02-15T10:46:52;101006.91;;;15.50;51.39
73952;BME280;62304;47.662;18.324;2024-02-15T10:49:57;101001.69;;;16.03;49.49
73952;BME280;62304;47.662;18.324;2024-02-15T10:53:03;101003.47;;;16.39;49.46
73952;BME280;62304;47.662;18.324;2024-02-15T10:56:26;101005.03;;;16.36;49.32
73952;BME280;62304;47.662;18.324;2024-02-15T10:59:32;101000.81;;;15.92;49.83
73952;BME280;62304;47.662;18.324;2024-02-15T11:02:45;100998.19;;;15.59;49.95
73952;BME280;62304;47.662;18.324;2024-02-15T11:05:52;101000.66;;;15.71;50.66
73952;BME280;62304;47.662;18.324;2024-02-15T11:08:59;100997.16;;;15.34;51.45
73952;BME280;62304;47.662;18.324;2024-02-15T11:12:06;100993.25;;;15.42;52.07
73952;BME280;62304;47.662;18.324;2024-02-15T11:15:09;100985.69;;;15.02;53.15
73952;BME280;62304;47.662;18.324;2024-02-15T11:21:53;100994.38;;;14.94;53.98
73952;BME280;62304;47.662;18.324;2024-02-15T11:25:00;100985.81;;;14.43;55.29
73952;BME280;62304;47.662;18.324;2024-02-15T11:31:55;100988.88;;;14.05;58.66
73952;BME280;62304;47.662;18.324;2024-02-15T11:35:18;100979.31;;;14.06;57.89
73952;BME280;62304;47.662;18.324;2024-02-15T11:38:29;100971.34;;;14.05;57.99
73952;BME280;62304;47.662;18.324;2024-02-15T11:41:33;100988.53;;;14.10;58.25
73952;BME280;62304;47.662;18.324;2024-02-15T11:44:37;100970.88;;;13.99;59.38
73952;BME280;62304;47.662;18.324;2024-02-15T11:47:41;100980.91;;;14.04;59.47
73952;BME280;62304;47.662;18.324;2024-02-15T11:50:46;100979.56;;;14.20;59.31
73952;BME280;62304;47.662;18.324;2024-02-15T11:54:06;100974.28;;;14.15;59.58
73952;BME280;62304;47.662;18.324;2024-02-15T11:57:09;100976.09;;;14.30;59.19
73952;BME280;62304;47.662;18.324;2024-02-15T12:00:20;100974.56;;;14.36;59.21
73952;BME280;62304;47.662;18.324;2024-02-15T12:03:42;100973.25;;;14.60;58.58
73952;BME280;62304;47.662;18.324;2024-02-15T12:07:09;100972.63;;;14.40;58.39
73952;BME280;62304;47.662;18.324;2024-02-15T12:10:33;100975.03;;;14.12;58.62
73952;BME280;62304;47.662;18.324;2024-02-15T12:13:55;100962.28;;;13.82;59.45
73952;BME280;62304;47.662;18.324;2024-02-15T12:17:17;100960.91;;;13.72;59.79
73952;BME280;62304;47.662;18.324;2024-02-15T12:20:38;100963.28;;;13.70;60.67
73952;BME280;62304;47.662;18.324;2024-02-15T12:23:42;100963.47;;;13.84;60.51
73952;BME280;62304;47.662;18.324;2024-02-15T12:26:45;100962.75;;;13.87;60.17
73952;BME280;62304;47.662;18.324;2024-02-15T12:29:57;100952.19;;;14.03;59.38
73952;BME280;62304;47.662;18.324;2024-02-15T12:33:12;100954.19;;;14.03;58.58
73952;BME280;62304;47.662;18.324;2024-02-15T12:36:19;100940.12;;;14.22;59.13
73952;BME280;62304;47.662;18.324;2024-02-15T12:39:26;100945.84;;;14.36;58.93
73952;BME280;62304;47.662;18.324;2024-02-15T12:42:31;100940.47;;;14.53;58.31
73952;BME280;62304;47.662;18.324;2024-02-15T12:45:41;100945.22;;;14.49;58.45
73952;BME280;62304;47.662;18.324;2024-02-15T12:48:45;100934.31;;;14.37;58.81
73952;BME280;62304;47.662;18.324;2024-02-15T12:51:53;100933.09;;;14.35;59.25
73952;BME280;62304;47.662;18.324;2024-02-15T12:55:14;100932.37;;;14.41;59.17
73952;BME280;62304;47.662;18.324;2024-02-15T12:58:17;100930.00;;;14.43;58.89
73952;BME280;62304;47.662;18.324;2024-02-15T13:01:22;100927.94;;;14.37;59.02
73952;BME280;62304;47.662;18.324;2024-02-15T13:04:25;100932.44;;;14.48;59.03
73952;BME280;62304;47.662;18.324;2024-02-15T13:07:29;100921.25;;;14.45;59.05
73952;BME280;62304;47.662;18.324;2024-02-15T13:10:32;100925.63;;;14.46;58.65
73952;BME280;62304;47.662;18.324;2024-02-15T13:13:35;100921.34;;;14.55;58.86
73952;BME280;62304;47.662;18.324;2024-02-15T13:16:40;100911.94;;;14.70;58.93
73952;BME280;62304;47.662;18.324;2024-02-15T13:19:46;100913.25;;;14.43;59.47
73952;BME280;62304;47.662;18.324;2024-02-15T13:22:52;100911.06;;;14.63;59.19
73952;BME280;62304;47.662;18.324;2024-02-15T13:25:56;100912.56;;;14.53;59.72
73952;BME280;62304;47.662;18.324;2024-02-15T13:29:01;100910.75;;;14.35;59.87
73952;BME280;62304;47.662;18.324;2024-02-15T13:32:04;100908.88;;;14.13;60.45
73952;BME280;62304;47.662;18.324;2024-02-15T13:35:09;100899.91;;;13.97;60.57
73952;BME280;62304;47.662;18.324;2024-02-15T13:38:16;100905.38;;;13.86;60.88
73952;BME280;62304;47.662;18.324;2024-02-15T13:41:26;100911.31;;;13.85;61.18
73952;BME280;62304;47.662;18.324;2024-02-15T13:44:30;100898.16;;;13.82;61.05
73952;BME280;62304;47.662;18.324;2024-02-15T13:47:34;100907.25;;;13.79;61.61
73952;BME280;62304;47.662;18.324;2024-02-15T13:50:39;100909.03;;;13.64;62.40
73952;BME280;62304;47.662;18.324;2024-02-15T13:53:44;100911.19;;;13.48;62.33
73952;BME280;62304;47.662;18.324;2024-02-15T13:56:49;100923.75;;;13.35;62.30
73952;BME280;62304;47.662;18.324;2024-02-15T13:59:55;100908.31;;;13.15;62.18
73952;BME280;62304;47.662;18.324;2024-02-15T14:03:00;100920.19;;;13.12;62.15
73952;BME280;62304;47.662;18.324;2024-02-15T14:06:06;100917.69;;;13.07;62.26
73952;BME280;62304;47.662;18.324;2024-02-15T14:09:10;100915.31;;;13.06;62.44
73952;BME280;62304;47.662;18.324;2024-02-15T14:12:16;100920.06;;;13.05;62.58
73952;BME280;62304;47.662;18.324;2024-02-15T14:15:21;100919.19;;;13.01;62.54
73952;BME280;62304;47.662;18.324;2024-02-15T14:18:26;100915.25;;;13.02;62.46
73952;BME280;62304;47.662;18.324;2024-02-15T14:21:31;100911.50;;;12.95;62.61
73952;BME280;62304;47.662;18.324;2024-02-15T14:24:37;100901.66;;;12.97;63.07
73952;BME280;62304;47.662;18.324;2024-02-15T14:27:41;100912.13;;;13.07;62.42
73952;BME280;62304;47.662;18.324;2024-02-15T14:30:46;100897.84;;;13.09;62.68
73952;BME280;62304;47.662;18.324;2024-02-15T14:34:08;100912.69;;;13.16;62.99
73952;BME280;62304;47.662;18.324;2024-02-15T14:37:13;100912.06;;;13.04;63.15
73952;BME280;62304;47.662;18.324;2024-02-15T14:40:16;100911.97;;;12.97;63.87
73952;BME280;62304;47.662;18.324;2024-02-15T14:43:22;100913.78;;;12.89;63.98
73952;BME280;62304;47.662;18.324;2024-02-15T14:46:26;100912.19;;;12.88;64.76
73952;BME280;62304;47.662;18.324;2024-02-15T14:49:30;100910.66;;;12.91;64.26
73952;BME280;62304;47.662;18.324;2024-02-15T14:52:37;100903.09;;;12.69;65.00
73952;BME280;62304;47.662;18.324;2024-02-15T14:55:41;100901.44;;;12.64;65.35
73952;BME280;62304;47.662;18.324;2024-02-15T14:58:49;100898.19;;;12.62;65.07
73952;BME280;62304;47.662;18.324;2024-02-15T15:01:52;100907.72;;;12.61;65.53
73952;BME280;62304;47.662;18.324;2024-02-15T15:05:04;100899.69;;;12.56;65.65
73952;BME280;62304;47.662;18.324;2024-02-15T15:08:26;100903.34;;;12.60;65.48
73952;BME280;62304;47.662;18.324;2024-02-15T15:11:48;100904.94;;;12.61;65.22
73952;BME280;62304;47.662;18.324;2024-02-15T15:15:11;100903.00;;;12.43;66.61
73952;BME280;62304;47.662;18.324;2024-02-15T15:18:19;100903.75;;;12.40;66.27
73952;BME280;62304;47.662;18.324;2024-02-15T15:21:22;100908.31;;;12.29;67.09
73952;BME280;62304;47.662;18.324;2024-02-15T15:24:26;100901.87;;;12.25;67.51
73952;BME280;62304;47.662;18.324;2024-02-15T15:27:30;100904.00;;;12.12;68.08
73952;BME280;62304;47.662;18.324;2024-02-15T15:30:34;100907.16;;;11.92;68.75
73952;BME280;62304;47.662;18.324;2024-02-15T15:33:37;100898.81;;;11.73;69.80
73952;BME280;62304;47.662;18.324;2024-02-15T15:36:42;100905.53;;;11.72;69.85
73952;BME280;62304;47.662;18.324;2024-02-15T15:39:46;100903.34;;;11.62;70.41
73952;BME280;62304;47.662;18.324;2024-02-15T15:42:48;100910.69;;;11.54;71.03
73952;BME280;62304;47.662;18.324;2024-02-15T15:45:53;100911.22;;;11.44;72.22
73952;BME280;62304;47.662;18.324;2024-02-15T15:48:57;100902.47;;;11.42;71.89
73952;BME280;62304;47.662;18.324;2024-02-15T15:52:01;100899.88;;;11.34;72.20
73952;BME280;62304;47.662;18.324;2024-02-15T15:55:05;100909.28;;;11.29;72.41
73952;BME280;62304;47.662;18.324;2024-02-15T15:58:14;100906.34;;;11.22;72.63
73952;BME280;62304;47.662;18.324;2024-02-15T16:01:17;100910.94;;;11.15;72.78
73952;BME280;62304;47.662;18.324;2024-02-15T16:04:22;100911.63;;;11.12;72.71
73952;BME280;62304;47.662;18.324;2024-02-15T16:07:25;100903.22;;;11.08;72.78
73952;BME280;62304;47.662;18.324;2024-02-15T16:10:29;100911.47;;;11.05;72.81
73952;BME280;62304;47.662;18.324;2024-02-15T16:13:32;100906.66;;;11.02;73.01